Time;durP1;ratioP1;P1;durP2;ratioP2;P2;SDS_P1;SDS_P2;PMS_P1;PMS_P2;Temp;Humidity;BMP_temperature;BMP_pressure;BME280_temperature;BME280_humidity;BME280_pressure;Samples;Min_cycle;Max_cycle;Signal;HPM_P1;HPM_P2
2023/10/19 00:00:44;;;;;;;26.80;23.95;;;13.30;99.90;;;;;;5041360;28;37930;-76
2023/10/19 00:03:11;;;;;;;27.15;23.98;;;13.30;99.90;;;;;;5025672;28;37575;-77
2023/10/19 00:05:38;;;;;;;28.13;24.38;;;13.30;99.90;;;;;;5041285;28;38849;-76
2023/10/19 00:08:22;;;;;;;35.38;27.27;;;13.40;99.90;;;;;;5024459;28;37164;-75
2023/10/19 00:11:02;;;;;;;36.40;26.10;;;13.40;99.90;;;;;;5054088;28;36297;-76
2023/10/19 00:13:30;;;;;;;32.13;26.42;;;13.50;99.90;;;;;;5020128;28;48404;-76
2023/10/19 00:15:58;;;;;;;27.13;23.17;;;13.50;99.90;;;;;;5035659;28;37814;-76
2023/10/19 00:18:24;;;;;;;27.02;23.27;;;13.50;99.90;;;;;;5018025;28;39132;-76
2023/10/19 00:20:53;;;;;;;24.42;21.30;;;13.60;99.90;;;;;;5020739;28;36543;-75
2023/10/19 00:23:34;;;;;;;25.30;22.23;;;13.60;99.90;;;;;;5021453;28;37413;-76
2023/10/19 00:26:08;;;;;;;24.15;21.58;;;13.60;99.90;;;;;;5024090;28;39361;-77
2023/10/19 00:28:38;;;;;;;30.50;24.88;;;13.70;99.90;;;;;;5025371;28;47396;-79
2023/10/19 00:31:08;;;;;;;36.70;26.50;;;13.70;99.90;;;;;;5031287;28;38424;-78
2023/10/19 00:33:38;;;;;;;24.48;21.90;;;13.70;99.90;;;;;;5020827;28;39468;-79
2023/10/19 00:36:09;;;;;;;31.27;25.05;;;13.80;99.90;;;;;;5042540;28;38218;-80
2023/10/19 00:43:45;;;;;;;22.17;19.88;;;13.80;99.90;;;;;;5021523;28;40383;-79
2023/10/19 00:46:20;;;;;;;21.45;19.13;;;13.90;99.90;;;;;;5022577;28;38397;-76
2023/10/19 00:48:57;;;;;;;24.52;20.52;;;14.10;99.90;;;;;;5027014;28;37281;-75
2023/10/19 00:54:10;;;;;;;30.20;22.45;;;14.40;99.90;;;;;;5021111;28;39042;-77
2023/10/19 00:56:41;;;;;;;23.00;19.98;;;14.50;99.90;;;;;;5033651;28;47249;-77
2023/10/19 00:59:14;;;;;;;21.58;18.35;;;14.50;99.90;;;;;;5019962;28;37937;-78
2023/10/19 01:04:14;;;;;;;14.48;12.18;;;14.70;99.90;;;;;;4987806;28;39054;-77
2023/10/19 01:06:58;;;;;;;12.45;11.18;;;14.90;99.90;;;;;;5064823;28;38467;-78
2023/10/19 01:09:27;;;;;;;12.32;9.75;;;14.90;99.90;;;;;;5051849;28;38144;-77
2023/10/19 01:11:53;;;;;;;13.85;7.72;;;14.90;99.90;;;;;;5062280;28;36226;-76
2023/10/19 01:14:21;;;;;;;11.05;6.72;;;14.90;99.90;;;;;;5063861;28;39013;-77
2023/10/19 01:16:49;;;;;;;9.70;4.15;;;14.90;99.90;;;;;;5059667;28;37177;-77
2023/10/19 01:19:20;;;;;;;5.30;4.13;;;14.90;99.90;;;;;;5055518;28;37597;-78
2023/10/19 01:21:50;;;;;;;7.80;3.20;;;15.00;99.90;;;;;;5062832;28;36012;-77
2023/10/19 01:24:38;;;;;;;6.82;3.20;;;14.90;99.90;;;;;;5068932;28;38821;-77
2023/10/19 01:27:08;;;;;;;5.85;2.70;;;15.00;99.90;;;;;;5058774;28;38568;-78
2023/10/19 01:29:37;;;;;;;6.30;2.28;;;15.00;99.90;;;;;;5062219;28;38184;-77
2023/10/19 01:32:11;;;;;;;10.10;2.80;;;15.00;99.90;;;;;;5060055;28;36050;-77
2023/10/19 01:34:37;;;;;;;7.07;2.45;;;15.00;99.90;;;;;;5063357;28;38453;-78
2023/10/19 01:37:04;;;;;;;8.45;2.08;;;15.00;99.90;;;;;;5057582;28;38285;-77
2023/10/19 01:39:31;;;;;;;6.30;2.30;;;15.00;99.90;;;;;;5067979;28;38013;-77
2023/10/19 01:41:58;;;;;;;4.32;1.65;;;15.00;99.90;;;;;;5053418;28;36054;-77
2023/10/19 01:44:25;;;;;;;8.85;1.90;;;15.00;99.90;;;;;;5066985;28;40080;-77
2023/10/19 01:46:51;;;;;;;6.28;1.85;;;15.00;99.90;;;;;;5066963;28;39415;-77
2023/10/19 01:49:27;;;;;;;4.20;1.30;;;15.00;99.90;;;;;;5064128;28;37893;-78
2023/10/19 01:51:54;;;;;;;6.85;1.65;;;15.00;99.90;;;;;;5056663;28;37214;-77
2023/10/19 01:54:24;;;;;;;3.75;1.92;;;15.00;99.90;;;;;;5055779;28;39083;-77
2023/10/19 01:56:56;;;;;;;6.07;1.52;;;15.00;99.90;;;;;;5047805;28;38723;-77
2023/10/19 01:59:27;;;;;;;4.13;1.42;;;15.00;99.90;;;;;;5055488;28;38028;-77
2023/10/19 02:01:54;;;;;;;8.32;1.63;;;15.10;99.90;;;;;;5062918;28;36060;-77
2023/10/19 02:04:23;;;;;;;3.70;1.38;;;15.00;99.90;;;;;;5068086;28;38474;-77
2023/10/19 02:06:52;;;;;;;3.55;1.20;;;15.10;99.90;;;;;;5070004;28;37603;-77
2023/10/19 02:09:23;;;;;;;3.80;1.30;;;15.00;99.90;;;;;;5057256;28;37876;-78
2023/10/19 02:11:55;;;;;;;3.28;1.02;;;15.00;99.90;;;;;;5064854;28;37954;-77
2023/10/19 02:14:22;;;;;;;;;;;15.00;99.90;;;;;;5060524;28;38569;-77
2023/10/19 02:16:53;;;;;;;7.38;1.10;;;15.00;99.90;;;;;;5061266;28;37663;-77
2023/10/19 02:19:21;;;;;;;2.83;0.80;;;15.00;99.90;;;;;;5059935;28;37125;-77
2023/10/19 02:21:53;;;;;;;6.20;0.88;;;15.00;99.90;;;;;;5053639;28;36037;-77
2023/10/19 02:24:19;;;;;;;3.88;1.63;;;14.90;99.90;;;;;;5057220;28;38433;-77
2023/10/19 02:26:51;;;;;;;3.65;1.02;;;14.90;99.90;;;;;;5063566;28;38516;-77
2023/10/19 02:29:21;;;;;;;4.70;1.00;;;14.90;99.90;;;;;;5052160;28;37911;-78
2023/10/19 02:31:48;;;;;;;3.00;1.02;;;14.90;99.90;;;;;;5075744;28;36132;-78
2023/10/19 02:34:15;;;;;;;4.93;1.75;;;14.90;99.90;;;;;;5072764;28;39156;-78
2023/10/19 02:36:43;;;;;;;3.40;0.90;;;15.00;99.90;;;;;;5062280;28;38293;-78
2023/10/19 02:39:11;;;;;;;4.97;1.10;;;15.00;99.90;;;;;;5066244;27;38798;-77
2023/10/19 02:41:39;;;;;;;7.55;1.38;;;15.10;99.90;;;;;;5069443;28;36158;-77
2023/10/19 02:44:19;;;;;;;5.30;1.15;;;15.10;99.90;;;;;;5064147;28;37095;-78
2023/10/19 02:46:47;;;;;;;4.85;1.20;;;15.10;99.90;;;;;;5066485;28;37280;-77
2023/10/19 02:49:18;;;;;;;7.28;1.20;;;15.10;99.90;;;;;;5060698;28;39792;-78
2023/10/19 02:51:45;;;;;;;6.15;1.38;;;15.10;99.90;;;;;;5063739;28;36234;-77
2023/10/19 02:56:51;;;;;;;4.97;1.08;;;15.20;99.90;;;;;;5049281;28;38758;-78
2023/10/19 02:59:22;;;;;;;3.35;1.08;;;15.20;99.90;;;;;;5055705;28;37691;-77
2023/10/19 03:02:00;;;;;;;5.70;1.13;;;15.20;99.90;;;;;;5062008;28;38051;-77
2023/10/19 03:04:28;;;;;;;5.80;1.20;;;15.10;99.90;;;;;;5058447;28;41999;-77
2023/10/19 03:06:57;;;;;;;4.72;1.40;;;15.10;99.90;;;;;;5064521;28;38275;-78
2023/10/19 03:11:55;;;;;;;5.68;1.63;;;14.90;99.90;;;;;;5061555;28;38298;-78
2023/10/19 03:14:24;;;;;;;2.28;0.90;;;15.00;99.90;;;;;;5058505;28;39447;-78
2023/10/19 03:16:52;;;;;;;3.22;0.85;;;14.90;99.90;;;;;;5064383;28;37381;-78
2023/10/19 03:19:20;;;;;;;5.80;1.23;;;14.80;99.90;;;;;;5066440;28;36912;-77
2023/10/19 03:21:49;;;;;;;6.47;1.40;;;14.80;99.90;;;;;;5067643;28;37134;-78
2023/10/19 03:24:40;;;;;;;5.68;1.02;;;14.80;99.90;;;;;;5063325;28;39592;-78
2023/10/19 03:32:40;;;;;;;6.45;1.33;;;14.70;99.90;;;;;;5048147;28;48552;-77
2023/10/19 03:35:07;;;;;;;3.30;0.88;;;14.60;99.90;;;;;;5064725;28;40026;-78
2023/10/19 03:37:36;;;;;;;5.70;1.20;;;14.60;99.90;;;;;;5067362;28;38642;-78
2023/10/19 03:40:09;;;;;;;8.77;1.00;;;14.60;99.90;;;;;;5061745;28;38833;-78
2023/10/19 03:42:40;;;;;;;5.97;1.40;;;14.60;99.90;;;;;;5060027;28;47277;-78
2023/10/19 03:45:13;;;;;;;7.13;1.30;;;14.60;99.90;;;;;;5061684;28;39040;-77
2023/10/19 03:47:43;;;;;;;6.95;1.00;;;14.60;99.90;;;;;;5055706;28;38392;-78
2023/10/19 03:50:14;;;;;;;5.38;1.30;;;14.70;99.90;;;;;;5056398;28;38623;-78
2023/10/19 03:52:40;;;;;;;3.10;1.10;;;14.60;99.90;;;;;;5060194;28;38040;-78
2023/10/19 03:55:14;;;;;;;8.95;1.10;;;14.60;99.90;;;;;;5059919;27;37974;-78
2023/10/19 03:57:50;;;;;;;6.03;1.30;;;14.60;99.90;;;;;;5068761;28;38604;-77
2023/10/19 04:00:18;;;;;;;4.57;1.17;;;14.60;99.90;;;;;;5071598;28;37873;-77
2023/10/19 04:02:45;;;;;;;9.38;1.08;;;14.50;99.90;;;;;;5068547;28;47614;-77
2023/10/19 04:05:14;;;;;;;9.65;1.30;;;14.60;99.90;;;;;;5066925;28;38049;-77
2023/10/19 04:07:43;;;;;;;6.97;1.30;;;14.50;99.90;;;;;;5065736;28;39587;-78
2023/10/19 04:10:29;;;;;;;6.97;1.45;;;14.40;99.90;;;;;;5067539;28;37435;-78
2023/10/19 04:12:55;;;;;;;5.35;1.10;;;14.40;99.90;;;;;;5071901;28;38055;-78
2023/10/19 04:15:22;;;;;;;10.65;1.60;;;14.50;99.90;;;;;;5069102;28;38006;-78
2023/10/19 04:17:48;;;;;;;5.93;1.17;;;14.40;99.90;;;;;;5064451;28;38722;-78
2023/10/19 04:22:46;;;;;;;5.68;1.30;;;14.40;99.90;;;;;;5069304;28;38315;-78
2023/10/19 04:25:15;;;;;;;7.82;1.17;;;14.50;99.90;;;;;;5068503;28;39273;-78
2023/10/19 04:27:42;;;;;;;5.05;1.05;;;14.40;99.90;;;;;;5063804;28;34978;-78
2023/10/19 04:30:15;;;;;;;4.78;1.17;;;14.40;99.90;;;;;;5073944;28;38333;-78
2023/10/19 04:32:52;;;;;;;5.07;1.10;;;14.50;99.90;;;;;;5073747;28;37022;-79
2023/10/19 04:35:21;;;;;;;4.38;1.30;;;14.50;99.90;;;;;;5062489;27;37349;-78
2023/10/19 04:37:52;;;;;;;4.95;1.00;;;14.60;99.90;;;;;;5066021;28;38683;-78
2023/10/19 04:40:25;;;;;;;5.85;1.10;;;14.60;99.90;;;;;;5066026;28;37359;-78
2023/10/19 04:42:52;;;;;;;6.50;1.27;;;14.60;99.90;;;;;;5066916;28;36413;-79
2023/10/19 04:45:18;;;;;;;8.90;1.33;;;14.60;99.90;;;;;;5067231;28;38690;-78
2023/10/19 04:47:44;;;;;;;8.77;1.55;;;14.70;99.90;;;;;;5065717;28;37370;-78
2023/10/19 04:50:10;;;;;;;7.40;1.40;;;14.70;99.90;;;;;;5062151;28;37945;-78
2023/10/19 04:52:37;;;;;;;8.85;1.23;;;14.70;99.90;;;;;;5068228;28;37060;-78
2023/10/19 04:55:04;;;;;;;10.82;1.08;;;14.70;99.90;;;;;;5070284;28;39047;-79
2023/10/19 04:57:31;;;;;;;6.38;1.50;;;14.80;99.90;;;;;;5081400;28;38478;-78
2023/10/19 04:59:57;;;;;;;6.63;1.23;;;14.80;99.90;;;;;;5068518;28;38388;-78
2023/10/19 05:02:24;;;;;;;8.68;1.65;;;14.80;99.90;;;;;;5054218;28;36333;-78
2023/10/19 05:04:50;;;;;;;6.60;1.25;;;14.80;99.90;;;;;;5062151;28;38743;-77
2023/10/19 05:07:20;;;;;;;11.25;1.70;;;14.80;99.90;;;;;;5067500;28;36994;-78
2023/10/19 05:09:46;;;;;;;5.50;1.67;;;14.90;99.90;;;;;;5066494;28;36886;-77
2023/10/19 05:12:14;;;;;;;6.65;1.23;;;14.90;99.90;;;;;;5067161;28;37618;-78
2023/10/19 05:14:41;;;;;;;8.55;1.40;;;14.80;99.90;;;;;;5062015;28;38744;-78
2023/10/19 05:17:14;;;;;;;7.72;1.13;;;14.90;99.90;;;;;;5062091;28;38928;-77
2023/10/19 05:19:40;;;;;;;6.55;1.23;;;14.90;99.90;;;;;;5060682;28;37484;-78
2023/10/19 05:22:08;;;;;;;4.20;0.98;;;14.90;99.90;;;;;;5069786;27;37561;-78
2023/10/19 05:24:35;;;;;;;8.15;1.45;;;15.00;99.90;;;;;;5059543;28;38831;-78
2023/10/19 05:27:02;;;;;;;7.75;1.30;;;14.90;99.90;;;;;;5067768;28;38581;-79
2023/10/19 05:29:35;;;;;;;5.78;1.15;;;14.90;99.90;;;;;;5054736;28;47411;-79
2023/10/19 05:32:03;;;;;;;7.60;1.45;;;15.00;99.90;;;;;;5062342;28;37132;-78
2023/10/19 05:34:31;;;;;;;4.07;1.25;;;15.00;99.90;;;;;;5060825;28;40014;-78
2023/10/19 05:37:01;;;;;;;5.55;1.20;;;14.90;99.90;;;;;;5062749;28;38457;-77
2023/10/19 05:39:33;;;;;;;8.77;1.50;;;15.00;99.90;;;;;;5062513;28;47444;-78
2023/10/19 05:42:00;;;;;;;6.30;1.33;;;15.00;99.90;;;;;;5059535;28;36965;-78
2023/10/19 05:44:30;;;;;;;11.57;2.10;;;15.00;99.90;;;;;;5063700;28;41548;-78
2023/10/19 05:46:58;;;;;;;11.20;1.95;;;15.10;99.90;;;;;;5061058;28;37315;-78
2023/10/19 05:49:24;;;;;;;7.32;1.52;;;15.10;99.90;;;;;;5065251;28;37794;-78
2023/10/19 05:51:51;;;;;;;7.75;1.85;;;15.10;99.90;;;;;;5065870;28;36686;-78
2023/10/19 05:54:17;;;;;;;11.48;1.85;;;15.10;99.90;;;;;;5062090;28;39403;-78
2023/10/19 05:56:43;;;;;;;10.13;1.73;;;15.20;99.90;;;;;;5060182;28;38905;-78
2023/10/19 05:59:10;;;;;;;10.18;1.83;;;15.20;99.90;;;;;;5060801;28;37689;-77
2023/10/19 06:01:37;;;;;;;10.48;1.27;;;15.20;99.90;;;;;;5048349;28;37166;-78
2023/10/19 06:04:03;;;;;;;8.80;1.52;;;15.20;99.90;;;;;;5053232;28;39849;-78
2023/10/19 06:06:29;;;;;;;7.03;1.20;;;15.20;99.90;;;;;;5063774;28;38635;-78
2023/10/19 06:08:55;;;;;;;12.52;1.60;;;15.20;99.90;;;;;;5054452;28;36840;-78
2023/10/19 06:11:23;;;;;;;9.30;1.67;;;15.20;99.90;;;;;;5063151;28;36887;-78
2023/10/19 06:13:49;;;;;;;6.35;1.20;;;15.20;99.90;;;;;;5053021;28;37768;-78
2023/10/19 06:16:15;;;;;;;10.45;1.30;;;15.30;99.90;;;;;;5055692;28;38703;-78
2023/10/19 06:18:43;;;;;;;5.88;1.40;;;15.30;99.90;;;;;;5064366;28;37144;-80
2023/10/19 06:21:09;;;;;;;9.23;1.48;;;15.30;99.90;;;;;;5062392;28;37843;-78
2023/10/19 06:23:36;;;;;;;5.93;1.75;;;15.40;99.90;;;;;;5054582;28;39758;-78
2023/10/19 06:26:11;;;;;;;5.60;1.35;;;15.40;99.90;;;;;;5054417;28;38197;-79
2023/10/19 06:28:39;;;;;;;9.30;1.60;;;15.40;99.90;;;;;;5058536;28;37049;-78
2023/10/19 06:31:05;;;;;;;7.18;1.77;;;15.40;99.90;;;;;;5070290;28;37511;-78
2023/10/19 06:33:33;;;;;;;6.57;1.48;;;15.40;99.90;;;;;;5053311;28;39672;-78
2023/10/19 06:35:59;;;;;;;8.43;1.35;;;15.40;99.90;;;;;;5060711;28;37515;-78
2023/10/19 06:38:26;;;;;;;8.55;1.60;;;15.40;99.90;;;;;;5054428;28;37833;-80
2023/10/19 06:40:56;;;;;;;5.72;1.40;;;15.40;99.90;;;;;;5079059;27;37125;-81
2023/10/19 06:43:27;;;;;;;7.20;1.38;;;15.40;99.90;;;;;;5064524;28;38759;-78
2023/10/19 06:45:55;;;;;;;12.85;1.95;;;15.40;99.90;;;;;;5061875;28;37094;-78
2023/10/19 06:48:21;;;;;;;17.77;2.00;;;15.40;99.90;;;;;;5060415;27;38287;-78
2023/10/19 06:50:47;;;;;;;9.60;1.38;;;15.50;99.90;;;;;;5061445;28;35979;-78
2023/10/19 06:53:13;;;;;;;9.27;1.90;;;15.50;99.90;;;;;;5060557;28;39214;-78
2023/10/19 06:55:40;;;;;;;7.13;1.58;;;15.50;99.90;;;;;;5065590;27;38296;-78
2023/10/19 06:58:09;;;;;;;10.63;2.03;;;15.50;99.90;;;;;;5062775;28;38584;-78
2023/10/19 07:00:42;;;;;;;13.23;1.80;;;15.50;99.90;;;;;;5062559;28;37416;-78
2023/10/19 07:03:08;;;;;;;9.15;1.58;;;15.40;99.90;;;;;;5062136;28;36912;-79
2023/10/19 07:05:34;;;;;;;8.35;1.75;;;15.50;99.90;;;;;;5062377;27;39216;-78
2023/10/19 07:08:02;;;;;;;16.58;2.10;;;15.50;99.90;;;;;;5065995;28;38531;-78
2023/10/19 07:10:28;;;;;;;14.98;2.00;;;15.50;99.90;;;;;;5063302;28;36966;-78
2023/10/19 07:12:56;;;;;;;10.57;1.90;;;15.50;99.90;;;;;;5058852;28;39908;-78
2023/10/19 07:15:25;;;;;;;10.25;2.20;;;15.60;99.90;;;;;;5059179;28;37533;-77
2023/10/19 07:17:52;;;;;;;11.73;2.05;;;15.60;99.90;;;;;;5059931;28;38895;-78
2023/10/19 07:23:03;;;;;;;12.40;1.98;;;15.60;99.90;;;;;;5056381;28;38867;-78
2023/10/19 07:25:31;;;;;;;7.80;1.92;;;15.60;99.90;;;;;;5056429;28;47146;-78
2023/10/19 07:27:59;;;;;;;14.70;2.50;;;15.60;99.90;;;;;;5055402;28;39072;-78
2023/10/19 07:30:30;;;;;;;7.82;1.75;;;15.60;99.90;;;;;;5047401;28;36087;-78
2023/10/19 07:32:59;;;;;;;6.72;1.80;;;15.60;99.90;;;;;;5058608;28;40544;-78
2023/10/19 07:35:26;;;;;;;9.40;2.25;;;15.70;99.90;;;;;;5054201;28;38116;-78
2023/10/19 07:37:53;;;;;;;14.25;2.63;;;15.70;99.90;;;;;;5062509;28;38685;-79
2023/10/19 07:40:20;;;;;;;8.57;2.22;;;15.70;99.90;;;;;;5061476;28;38157;-79
2023/10/19 07:42:48;;;;;;;9.80;2.00;;;15.60;99.90;;;;;;5061748;28;39250;-78
2023/10/19 07:45:15;;;;;;;8.88;1.98;;;15.60;99.90;;;;;;5063802;28;39528;-78
2023/10/19 07:47:42;;;;;;;16.88;2.30;;;15.50;99.90;;;;;;5063323;28;39185;-78
2023/10/19 07:50:12;;;;;;;12.15;2.47;;;15.50;99.90;;;;;;5053125;27;38204;-77
2023/10/19 07:52:39;;;;;;;10.25;2.80;;;15.40;99.90;;;;;;5079299;28;38098;-78
2023/10/19 07:55:06;;;;;;;12.18;3.17;;;15.50;99.90;;;;;;5064249;28;37685;-78
2023/10/19 07:57:34;;;;;;;11.57;2.72;;;15.40;99.90;;;;;;5066557;28;37776;-78
2023/10/19 08:00:00;;;;;;;8.00;2.85;;;15.50;99.90;;;;;;5066079;28;36170;-79
2023/10/19 08:02:26;;;;;;;10.48;2.63;;;15.50;99.90;;;;;;5056225;28;38560;-79
2023/10/19 08:04:52;;;;;;;10.88;2.55;;;15.50;99.90;;;;;;5075504;28;37130;-79
2023/10/19 08:07:19;;;;;;;12.10;2.78;;;15.50;99.90;;;;;;5069267;28;37656;-80
2023/10/19 08:09:45;;;;;;;8.98;2.70;;;15.50;99.90;;;;;;5060166;28;36450;-78
2023/10/19 08:12:13;;;;;;;7.15;2.60;;;15.50;99.90;;;;;;5078753;28;37613;-80
2023/10/19 08:14:40;;;;;;;10.23;2.30;;;15.60;99.90;;;;;;5054152;28;37540;-79
2023/10/19 08:17:08;;;;;;;10.98;3.00;;;15.60;99.90;;;;;;5063377;28;36867;-79
2023/10/19 08:19:35;;;;;;;14.32;2.72;;;15.60;99.90;;;;;;5068898;28;36405;-78
2023/10/19 08:22:02;;;;;;;7.93;2.30;;;15.70;99.90;;;;;;5066776;28;38543;-78
2023/10/19 08:24:30;;;;;;;11.65;2.50;;;15.70;99.90;;;;;;5060003;28;38129;-78
2023/10/19 08:26:56;;;;;;;10.07;2.85;;;15.90;99.90;;;;;;5059375;28;37708;-78
2023/10/19 08:29:23;;;;;;;11.18;2.85;;;16.10;99.90;;;;;;5061251;28;36211;-78
2023/10/19 08:31:50;;;;;;;14.23;2.72;;;16.10;99.90;;;;;;5059569;28;38906;-80
2023/10/19 08:34:17;;;;;;;13.75;2.65;;;16.20;99.90;;;;;;5065993;28;38455;-79
2023/10/19 08:36:43;;;;;;;11.27;2.38;;;16.30;99.90;;;;;;5061092;28;37016;-78
2023/10/19 08:39:12;;;;;;;15.90;3.35;;;16.30;99.90;;;;;;5052660;28;37035;-79
2023/10/19 08:41:40;;;;;;;12.68;3.20;;;16.40;99.90;;;;;;5060674;28;38617;-79
2023/10/19 08:44:10;;;;;;;11.65;2.58;;;16.30;99.90;;;;;;5066329;28;38455;-78
2023/10/19 08:46:43;;;;;;;13.32;3.13;;;16.40;99.90;;;;;;5061531;28;37220;-77
2023/10/19 08:49:12;;;;;;;11.05;2.60;;;16.40;99.90;;;;;;5067370;28;37832;-77
2023/10/19 08:51:39;;;;;;;15.13;3.42;;;16.40;99.90;;;;;;5058509;28;38703;-79
2023/10/19 08:54:06;;;;;;;12.93;2.78;;;16.40;99.90;;;;;;5052896;28;39117;-77
2023/10/19 08:56:35;;;;;;;12.95;2.75;;;16.50;99.90;;;;;;5062842;28;38580;-77
2023/10/19 08:59:01;;;;;;;17.15;2.80;;;16.50;99.90;;;;;;5068347;28;36518;-76
2023/10/19 09:01:28;;;;;;;11.90;2.92;;;16.60;99.90;;;;;;5061849;28;38025;-77
2023/10/19 09:03:58;;;;;;;20.52;3.38;;;16.60;99.90;;;;;;5063309;28;37332;-76
2023/10/19 09:06:25;;;;;;;10.23;2.97;;;16.60;99.90;;;;;;5062730;28;39333;-76
2023/10/19 09:08:51;;;;;;;9.85;3.30;;;16.60;99.90;;;;;;5062484;28;37396;-76
2023/10/19 09:11:20;;;;;;;14.70;3.55;;;16.70;99.90;;;;;;5069158;28;39807;-76
2023/10/19 09:13:51;;;;;;;17.15;3.65;;;16.70;99.90;;;;;;5058890;28;38142;-76
2023/10/19 09:16:20;;;;;;;13.07;3.28;;;16.60;99.90;;;;;;5052944;28;39822;-76
2023/10/19 09:18:47;;;;;;;14.23;3.45;;;16.70;99.90;;;;;;5060518;28;36445;-76
2023/10/19 09:21:28;;;;;;;13.38;3.97;;;16.70;99.90;;;;;;5063512;28;37527;-76
2023/10/19 09:23:56;;;;;;;12.80;3.15;;;16.80;99.90;;;;;;5062123;28;38721;-76
2023/10/19 09:26:24;;;;;;;13.52;3.30;;;16.80;99.90;;;;;;5045162;28;37067;-76
2023/10/19 09:28:51;;;;;;;13.13;4.00;;;16.80;99.90;;;;;;5059335;28;36108;-76
2023/10/19 09:31:18;;;;;;;17.83;3.38;;;16.90;99.90;;;;;;5053410;28;37469;-76
2023/10/19 09:33:47;;;;;;;14.00;3.17;;;16.90;99.90;;;;;;5063341;28;39230;-76
2023/10/19 09:36:14;;;;;;;13.65;3.38;;;16.90;99.90;;;;;;5062355;28;38836;-75
2023/10/19 09:38:53;;;;;;;14.85;3.13;;;17.00;99.90;;;;;;5060055;28;36687;-76
2023/10/19 09:41:28;;;;;;;10.77;2.72;;;17.00;99.90;;;;;;5062246;28;37831;-76
2023/10/19 09:44:00;;;;;;;17.15;3.83;;;17.00;99.90;;;;;;5061818;28;37321;-75
2023/10/19 09:46:28;;;;;;;;;;;17.00;99.90;;;;;;5050390;28;37923;-75
2023/10/19 09:48:55;;;;;;;14.35;2.80;;;17.00;99.90;;;;;;5050680;28;37296;-75
2023/10/19 09:51:23;;;;;;;12.35;2.75;;;17.20;99.90;;;;;;5057612;28;37486;-74
2023/10/19 09:53:59;;;;;;;14.65;3.47;;;17.40;99.90;;;;;;5064918;28;38263;-75
2023/10/19 09:56:31;;;;;;;14.05;3.53;;;17.50;99.90;;;;;;5061534;28;37631;-75
2023/10/19 09:59:04;;;;;;;18.85;4.00;;;17.50;99.90;;;;;;5053388;28;36705;-76
2023/10/19 10:02:17;;;;;;;15.40;3.58;;;17.50;99.90;;;;;;5056321;28;46914;-76
2023/10/19 10:04:45;;;;;;;17.60;3.35;;;17.60;99.90;;;;;;5065820;28;48720;-75
2023/10/19 10:07:16;;;;;;;17.30;2.95;;;17.70;99.90;;;;;;5062491;28;37204;-75
2023/10/19 10:09:46;;;;;;;11.57;2.70;;;17.80;99.90;;;;;;5065395;28;36976;-75
2023/10/19 10:12:23;;;;;;;13.50;2.95;;;17.90;99.90;;;;;;5060137;28;37597;-75
2023/10/19 10:15:08;;;;;;;14.27;2.83;;;17.80;99.90;;;;;;5057179;28;37505;-75
2023/10/19 10:17:37;;;;;;;16.10;3.30;;;17.70;99.90;;;;;;5046721;28;47001;-75
2023/10/19 10:20:15;;;;;;;15.82;2.70;;;17.60;99.90;;;;;;5065520;28;37813;-75
2023/10/19 10:22:41;;;;;;;10.90;2.97;;;17.60;99.90;;;;;;5053726;28;47068;-75
2023/10/19 10:25:10;;;;;;;13.35;2.50;;;17.70;99.90;;;;;;5057400;28;39379;-74
2023/10/19 10:27:48;;;;;;;17.25;3.00;;;17.70;99.90;;;;;;5059530;28;38376;-75
2023/10/19 10:30:15;;;;;;;15.20;3.15;;;17.60;99.90;;;;;;5062483;28;38154;-75
2023/10/19 10:32:52;;;;;;;17.27;3.25;;;17.50;99.90;;;;;;5064987;28;38853;-75
2023/10/19 10:35:37;;;;;;;17.85;2.67;;;17.60;99.90;;;;;;5061292;28;37248;-77
2023/10/19 10:38:09;;;;;;;11.63;2.35;;;17.40;99.90;;;;;;5062575;28;36981;-78
2023/10/19 10:40:47;;;;;;;12.55;2.65;;;17.50;99.90;;;;;;5070105;28;35732;-76
2023/10/19 10:43:14;;;;;;;13.02;2.67;;;17.60;99.90;;;;;;5065555;28;38910;-77
2023/10/19 10:45:40;;;;;;;9.30;2.20;;;17.70;99.90;;;;;;5059471;28;37129;-76
2023/10/19 10:48:12;;;;;;;11.00;2.38;;;17.80;99.90;;;;;;5058094;28;36914;-76
2023/10/19 10:50:39;;;;;;;17.88;2.80;;;17.90;99.90;;;;;;5061837;28;36966;-77
2023/10/19 10:53:05;;;;;;;12.10;2.72;;;17.90;99.90;;;;;;5067808;28;37946;-76
2023/10/19 10:55:32;;;;;;;14.50;3.38;;;17.80;99.90;;;;;;5059011;28;37287;-74
2023/10/19 10:57:59;;;;;;;17.48;2.95;;;17.90;99.90;;;;;;5066137;28;38836;-75
2023/10/19 11:00:26;;;;;;;14.43;2.75;;;17.80;99.90;;;;;;5052064;28;38068;-77
2023/10/19 11:03:04;;;;;;;10.00;2.25;;;17.80;99.90;;;;;;5057100;28;37609;-75
2023/10/19 11:05:33;;;;;;;15.30;2.78;;;17.80;99.90;;;;;;5050102;28;48723;-75
2023/10/19 11:08:20;;;;;;;17.08;2.50;;;17.80;99.90;;;;;;5058785;28;38346;-77
2023/10/19 11:10:47;;;;;;;11.60;2.63;;;17.90;99.90;;;;;;5059460;28;47114;-76
2023/10/19 11:13:15;;;;;;;8.55;1.98;;;17.90;99.90;;;;;;5057617;28;37565;-78
2023/10/19 11:15:56;;;;;;;12.45;2.03;;;17.90;99.90;;;;;;5064283;28;37824;-77
2023/10/19 11:18:49;;;;;;;13.82;2.65;;;18.00;99.90;;;;;;5063249;28;38514;-77
2023/10/19 11:21:18;;;;;;;19.77;2.50;;;18.00;99.90;;;;;;5055262;28;38128;-77
2023/10/19 11:23:45;;;;;;;12.70;2.25;;;18.00;99.90;;;;;;5061087;28;39579;-76
2023/10/19 11:26:13;;;;;;;13.65;2.80;;;18.00;99.90;;;;;;5050420;28;37316;-76
2023/10/19 11:28:47;;;;;;;9.90;1.85;;;18.20;99.90;;;;;;5055157;28;36987;-76
2023/10/19 11:31:23;;;;;;;11.32;2.83;;;18.20;99.90;;;;;;5064596;28;37865;-75
2023/10/19 11:33:51;;;;;;;12.90;2.30;;;18.30;99.90;;;;;;5055935;28;37968;-74
2023/10/19 11:36:18;;;;;;;13.88;2.40;;;18.20;99.90;;;;;;5058413;28;37497;-77
2023/10/19 11:38:47;;;;;;;11.40;2.72;;;18.10;99.90;;;;;;5065728;28;36959;-76
2023/10/19 11:41:14;;;;;;;14.15;2.55;;;18.10;99.90;;;;;;5061793;28;36997;-75
2023/10/19 11:43:42;;;;;;;18.13;3.38;;;18.10;99.90;;;;;;5065999;28;40355;-75
2023/10/19 11:46:09;;;;;;;15.15;3.45;;;18.10;99.90;;;;;;5064145;28;37042;-75
2023/10/19 11:48:36;;;;;;;16.48;2.90;;;18.00;99.90;;;;;;5061536;28;38160;-75
2023/10/19 11:51:03;;;;;;;13.18;2.55;;;17.90;99.90;;;;;;5062401;27;38155;-75
2023/10/19 11:53:37;;;;;;;10.70;2.25;;;17.90;99.90;;;;;;5065318;28;36670;-75
2023/10/19 11:56:05;;;;;;;14.75;2.72;;;17.90;99.90;;;;;;5066630;27;38306;-75
2023/10/19 11:58:34;;;;;;;13.00;2.42;;;17.80;99.90;;;;;;5059260;28;37850;-75
2023/10/19 12:01:08;;;;;;;15.02;2.53;;;17.80;99.90;;;;;;5062682;28;36784;-75
2023/10/19 12:03:39;;;;;;;13.65;3.22;;;17.70;99.90;;;;;;5060963;28;47307;-75
2023/10/19 12:06:06;;;;;;;11.77;3.20;;;17.60;99.90;;;;;;5064603;28;38362;-75
2023/10/19 12:08:34;;;;;;;10.52;3.03;;;17.60;99.90;;;;;;5065453;28;39046;-74
2023/10/19 12:11:03;;;;;;;16.95;3.17;;;17.60;99.90;;;;;;5065037;28;36121;-74
2023/10/19 12:13:33;;;;;;;15.35;3.72;;;17.60;99.90;;;;;;5057966;28;47068;-75
2023/10/19 12:15:59;;;;;;;11.05;2.22;;;17.50;99.90;;;;;;5066809;28;38827;-74
2023/10/19 12:18:26;;;;;;;15.10;2.92;;;17.50;99.90;;;;;;5070132;28;37778;-75
2023/10/19 12:20:56;;;;;;;13.13;2.50;;;17.50;99.90;;;;;;5067226;28;36204;-75
2023/10/19 12:23:23;;;;;;;11.98;2.55;;;17.50;99.90;;;;;;5064241;28;38896;-75
2023/10/19 12:25:50;;;;;;;15.57;2.75;;;17.40;99.90;;;;;;5066176;28;38219;-75
2023/10/19 12:28:16;;;;;;;13.93;2.35;;;17.50;99.90;;;;;;5063672;28;39117;-74
2023/10/19 12:30:42;;;;;;;11.68;2.58;;;17.50;99.90;;;;;;5063280;28;37069;-74
2023/10/19 12:33:11;;;;;;;12.80;3.03;;;17.50;99.90;;;;;;5062054;28;37961;-74
2023/10/19 12:35:49;;;;;;;12.95;2.35;;;17.60;99.90;;;;;;5067697;28;38350;-76
2023/10/19 12:38:16;;;;;;;12.27;3.10;;;17.70;99.90;;;;;;5056060;28;37911;-76
2023/10/19 12:40:50;;;;;;;9.85;2.50;;;17.70;99.90;;;;;;5065716;28;37696;-76
2023/10/19 12:43:22;;;;;;;12.40;2.58;;;17.60;99.90;;;;;;5065612;28;37707;-76
2023/10/19 12:45:55;;;;;;;13.93;2.80;;;17.60;99.90;;;;;;5057277;28;37311;-76
2023/10/19 12:48:22;;;;;;;12.77;2.75;;;17.60;99.90;;;;;;5061702;28;37198;-76
2023/10/19 12:50:48;;;;;;;13.32;2.40;;;17.60;99.90;;;;;;5060135;28;37304;-76
2023/10/19 12:53:14;;;;;;;12.27;2.50;;;17.60;99.90;;;;;;5065853;28;39008;-76
2023/10/19 12:55:43;;;;;;;16.60;2.63;;;17.60;99.90;;;;;;5063182;28;39628;-76
2023/10/19 12:58:09;;;;;;;19.80;3.58;;;17.70;99.90;;;;;;5054557;28;38601;-76
2023/10/19 13:00:36;;;;;;;17.15;2.78;;;17.60;99.90;;;;;;5057364;28;37440;-76
2023/10/19 13:03:05;;;;;;;12.35;2.65;;;17.70;99.90;;;;;;5047011;28;38906;-75
2023/10/19 13:05:38;;;;;;;18.20;3.30;;;17.60;99.90;;;;;;5063232;28;37699;-76
2023/10/19 13:08:06;;;;;;;9.30;2.10;;;17.50;99.90;;;;;;5053069;28;37918;-76
2023/10/19 13:10:34;;;;;;;13.80;2.70;;;17.50;99.90;;;;;;5061441;28;37178;-75
2023/10/19 13:13:04;;;;;;;11.95;2.30;;;17.40;99.90;;;;;;5057975;28;37682;-76
2023/10/19 13:15:32;;;;;;;15.35;2.67;;;17.30;99.90;;;;;;5053671;28;47046;-76
2023/10/19 13:17:59;;;;;;;15.85;3.22;;;17.10;99.90;;;;;;5056283;28;39227;-76